createdAt,value
2023-10-15T00:00:53.908Z,0.89
2023-10-15T00:03:20.409Z,0.89
2023-10-15T00:05:46.837Z,0.85
2023-10-15T00:08:13.222Z,0.89
2023-10-15T00:10:39.610Z,0.93
2023-10-15T00:13:05.991Z,1.14
2023-10-15T00:15:32.363Z,0.94
2023-10-15T00:17:58.811Z,0.86
2023-10-15T00:20:25.244Z,0.88
2023-10-15T00:22:51.658Z,0.72
2023-10-15T00:25:18.118Z,0.77
2023-10-15T00:27:44.494Z,1.00
2023-10-15T00:30:10.866Z,0.86
2023-10-15T00:32:37.298Z,0.91
2023-10-15T00:35:03.806Z,0.91
2023-10-15T00:37:30.284Z,0.95
2023-10-15T00:39:56.706Z,0.84
2023-10-15T00:42:23.069Z,0.78
2023-10-15T00:44:49.433Z,0.83
2023-10-15T00:47:15.906Z,0.91
2023-10-15T00:49:42.385Z,0.89
2023-10-15T00:52:08.792Z,0.86
2023-10-15T00:54:35.155Z,0.99
2023-10-15T00:57:01.532Z,0.88
2023-10-15T00:59:27.894Z,0.99
2023-10-15T01:01:54.310Z,0.86
2023-10-15T01:04:20.768Z,0.97
2023-10-15T01:06:47.145Z,0.96
2023-10-15T01:09:13.538Z,0.77
2023-10-15T01:11:39.906Z,0.80
2023-10-15T01:14:06.293Z,0.99
2023-10-15T01:16:32.719Z,0.89
2023-10-15T01:18:59.128Z,0.89
2023-10-15T01:21:25.525Z,0.88
2023-10-15T01:23:51.912Z,1.00
2023-10-15T01:26:18.314Z,1.19
2023-10-15T01:28:44.788Z,0.96
2023-10-15T01:31:11.214Z,1.00
2023-10-15T01:33:37.632Z,0.88
2023-10-15T01:36:03.999Z,0.75
2023-10-15T01:38:30.376Z,0.99
2023-10-15T01:40:56.816Z,1.12
2023-10-15T01:43:23.306Z,1.03
2023-10-15T01:45:49.778Z,1.02
2023-10-15T01:48:16.156Z,1.00
2023-10-15T01:50:42.536Z,0.92
2023-10-15T01:53:08.913Z,1.15
2023-10-15T01:55:35.307Z,1.18
2023-10-15T01:58:01.730Z,1.15
2023-10-15T02:00:28.126Z,1.11
2023-10-15T02:02:54.669Z,1.08
2023-10-15T02:05:21.145Z,1.09
2023-10-15T02:07:47.534Z,1.13
2023-10-15T02:10:13.915Z,1.10
2023-10-15T02:12:40.301Z,1.20
2023-10-15T02:15:06.681Z,1.22
2023-10-15T02:17:33.109Z,1.11
2023-10-15T02:19:59.548Z,1.20
2023-10-15T02:22:25.958Z,1.30
2023-10-15T02:24:52.351Z,1.13
2023-10-15T02:27:18.724Z,1.15
2023-10-15T02:29:45.097Z,1.20
2023-10-15T02:32:11.519Z,1.16
2023-10-15T02:34:38.121Z,1.10
2023-10-15T02:37:04.572Z,1.02
2023-10-15T02:39:30.967Z,0.98
2023-10-15T02:41:57.347Z,1.17
2023-10-15T02:44:23.959Z,1.07
2023-10-15T02:46:50.680Z,1.07
2023-10-15T02:49:17.123Z,0.98
2023-10-15T02:51:43.528Z,1.19
2023-10-15T02:54:09.924Z,1.13
2023-10-15T02:56:36.304Z,1.10
2023-10-15T02:59:02.794Z,1.31
2023-10-15T03:01:29.224Z,1.21
2023-10-15T03:03:55.655Z,1.16
2023-10-15T03:06:22.076Z,1.45
2023-10-15T03:08:50.453Z,1.15
2023-10-15T03:11:16.967Z,1.29
2023-10-15T03:13:43.476Z,1.22
2023-10-15T03:16:09.900Z,1.50
2023-10-15T03:18:36.281Z,1.36
2023-10-15T03:21:02.649Z,1.26
2023-10-15T03:23:29.023Z,1.10
2023-10-15T03:25:55.401Z,1.32
2023-10-15T03:28:21.819Z,1.21
2023-10-15T03:30:48.204Z,1.13
2023-10-15T03:33:14.639Z,1.33
2023-10-15T03:35:41.050Z,1.15
2023-10-15T03:38:07.419Z,1.23
2023-10-15T03:40:33.826Z,1.22
2023-10-15T03:43:00.209Z,1.17
2023-10-15T03:45:26.585Z,1.16
2023-10-15T03:47:53.072Z,1.17
2023-10-15T03:50:19.514Z,1.28
2023-10-15T03:52:45.949Z,1.22
2023-10-15T03:55:12.382Z,1.45
2023-10-15T03:57:38.791Z,1.54
2023-10-15T04:00:05.193Z,1.33
2023-10-15T04:02:31.655Z,1.33
2023-10-15T04:04:58.184Z,1.39
2023-10-15T04:07:24.668Z,1.32
2023-10-15T04:09:51.086Z,1.30
2023-10-15T04:12:17.462Z,1.41
2023-10-15T04:14:43.830Z,1.23
2023-10-15T04:17:10.231Z,1.13
2023-10-15T04:19:37.057Z,1.23
2023-10-15T04:22:03.501Z,1.24
2023-10-15T04:24:29.881Z,1.26
2023-10-15T04:26:56.260Z,1.21
2023-10-15T04:29:22.637Z,1.27
2023-10-15T04:31:49.184Z,1.30
2023-10-15T04:34:15.654Z,1.44
2023-10-15T04:36:42.033Z,1.45
2023-10-15T04:39:08.405Z,1.28
2023-10-15T04:41:34.792Z,1.49
2023-10-15T04:44:01.226Z,1.44
2023-10-15T04:46:27.665Z,1.43
2023-10-15T04:48:54.064Z,1.40
2023-10-15T04:51:20.454Z,1.48
2023-10-15T04:53:46.816Z,1.28
2023-10-15T04:56:13.200Z,1.14
2023-10-15T04:58:39.624Z,1.15
2023-10-15T05:01:06.059Z,1.42
2023-10-15T05:03:32.496Z,1.43
2023-10-15T05:05:58.897Z,1.07
2023-10-15T05:08:25.369Z,1.01
2023-10-15T05:10:52.729Z,1.13
2023-10-15T05:13:19.388Z,1.14
2023-10-15T05:15:45.799Z,1.20
2023-10-15T05:18:12.223Z,1.22
2023-10-15T05:20:38.644Z,1.22
2023-10-15T05:23:05.131Z,1.16
2023-10-15T05:25:31.732Z,1.32
2023-10-15T05:27:58.126Z,1.16
2023-10-15T05:30:24.486Z,1.31
2023-10-15T05:32:50.878Z,1.25
2023-10-15T05:35:17.332Z,1.27
2023-10-15T05:37:43.757Z,1.31
2023-10-15T05:40:10.164Z,1.22
2023-10-15T05:42:36.530Z,1.39
2023-10-15T05:45:02.914Z,1.46
2023-10-15T05:47:29.542Z,1.33
2023-10-15T05:49:56.079Z,1.39
2023-10-15T05:52:22.510Z,1.42
2023-10-15T05:54:48.892Z,1.28
2023-10-15T05:57:15.271Z,1.40
2023-10-15T05:59:41.651Z,1.30
2023-10-15T06:02:08.065Z,1.12
2023-10-15T06:04:35.312Z,1.27
2023-10-15T06:07:02.975Z,1.23
2023-10-15T06:09:29.355Z,1.41
2023-10-15T06:11:55.733Z,1.34
2023-10-15T06:14:22.127Z,2.10
2023-10-15T06:16:48.553Z,1.87
2023-10-15T06:19:15.383Z,1.65
2023-10-15T06:21:41.834Z,1.91
2023-10-15T06:24:08.215Z,3.58
2023-10-15T06:26:34.601Z,3.46
2023-10-15T06:29:01.014Z,4.68
2023-10-15T06:31:27.486Z,4.84
2023-10-15T06:33:53.871Z,5.00
2023-10-15T06:36:20.255Z,3.87
2023-10-15T06:38:46.637Z,2.25
2023-10-15T06:41:13.081Z,1.96
2023-10-15T06:43:39.545Z,2.08
2023-10-15T06:46:05.973Z,2.08
2023-10-15T06:48:32.381Z,2.17
2023-10-15T06:50:58.797Z,2.15
2023-10-15T06:53:25.198Z,3.19
2023-10-15T06:55:51.601Z,2.84
2023-10-15T06:58:17.983Z,2.38
2023-10-15T07:00:44.490Z,2.52
2023-10-15T07:03:10.975Z,2.12
2023-10-15T07:05:39.366Z,2.16
2023-10-15T07:08:06.079Z,1.71
2023-10-15T07:10:32.494Z,2.00
2023-10-15T07:12:58.889Z,1.38
2023-10-15T07:15:25.444Z,1.99
2023-10-15T07:17:52.163Z,2.05
2023-10-15T07:20:18.653Z,1.65
2023-10-15T07:22:45.045Z,1.25
2023-10-15T07:25:13.460Z,1.23
2023-10-15T07:27:41.248Z,1.25
2023-10-15T07:30:07.632Z,1.22
2023-10-15T07:32:34.032Z,1.33
2023-10-15T07:35:00.520Z,1.56
2023-10-15T07:37:26.964Z,1.57
2023-10-15T07:39:53.338Z,1.45
2023-10-15T07:42:19.710Z,1.55
2023-10-15T07:44:46.092Z,1.08
2023-10-15T07:47:12.473Z,1.15
2023-10-15T07:49:38.918Z,1.13
2023-10-15T07:52:05.675Z,1.18
2023-10-15T07:54:32.056Z,1.36
2023-10-15T07:56:58.427Z,1.07
2023-10-15T07:59:24.803Z,1.00
2023-10-15T08:01:51.270Z,1.16
2023-10-15T08:04:17.874Z,1.03
2023-10-15T08:06:44.539Z,1.03
2023-10-15T08:09:11.035Z,1.04
2023-10-15T08:11:37.419Z,0.98
2023-10-15T08:14:03.839Z,1.11
2023-10-15T08:16:30.263Z,1.06
2023-10-15T08:18:56.652Z,1.15
2023-10-15T08:21:23.024Z,1.38
2023-10-15T08:23:49.377Z,1.33
2023-10-15T08:26:15.778Z,1.18
2023-10-15T08:28:42.242Z,1.12
2023-10-15T08:31:08.662Z,0.98
2023-10-15T08:33:35.073Z,1.04
2023-10-15T08:36:01.466Z,1.20
2023-10-15T08:38:27.854Z,1.69
2023-10-15T08:40:54.296Z,1.20
2023-10-15T08:43:20.700Z,1.01
2023-10-15T08:45:47.059Z,1.56
2023-10-15T08:48:13.484Z,1.66
2023-10-15T08:50:39.944Z,1.55
2023-10-15T08:53:06.337Z,1.09
2023-10-15T08:55:32.817Z,1.55
2023-10-15T08:57:59.227Z,1.56
2023-10-15T09:00:30.887Z,1.93
2023-10-15T09:02:59.169Z,2.58
2023-10-15T09:05:25.617Z,2.47
2023-10-15T09:07:52.049Z,2.00
2023-10-15T09:10:18.498Z,1.35
2023-10-15T09:12:44.885Z,1.35
2023-10-15T09:15:11.297Z,1.56
2023-10-15T09:17:37.826Z,1.72
2023-10-15T09:20:04.384Z,1.84
2023-10-15T09:22:30.789Z,1.01
2023-10-15T09:24:57.153Z,0.95
2023-10-15T09:27:23.565Z,0.80
2023-10-15T09:29:49.952Z,0.77
2023-10-15T09:32:16.406Z,1.10
2023-10-15T09:34:42.829Z,0.76
2023-10-15T09:37:09.234Z,0.75
2023-10-15T09:39:35.663Z,0.77
2023-10-15T09:42:02.054Z,0.79
2023-10-15T09:44:28.437Z,0.83
2023-10-15T09:46:54.855Z,1.03
2023-10-15T09:49:21.249Z,1.01
2023-10-15T09:51:47.617Z,1.18
2023-10-15T09:54:13.992Z,1.07
2023-10-15T09:56:40.372Z,1.25
2023-10-15T09:59:06.808Z,1.01
2023-10-15T10:01:33.281Z,1.14
2023-10-15T10:03:59.783Z,1.03
2023-10-15T10:06:26.224Z,1.02
2023-10-15T10:08:52.618Z,0.98
2023-10-15T10:11:18.997Z,0.91
2023-10-15T10:13:45.421Z,0.71
2023-10-15T10:16:11.846Z,0.70
2023-10-15T10:18:38.324Z,0.87
2023-10-15T10:21:04.744Z,1.16
2023-10-15T10:23:46.116Z,1.35
2023-10-15T10:26:15.258Z,0.93
2023-10-15T10:28:41.721Z,0.84
2023-10-15T10:31:08.182Z,0.84
2023-10-15T10:33:34.633Z,1.05
2023-10-15T10:36:01.030Z,1.03
2023-10-15T10:38:27.401Z,0.83
2023-10-15T10:40:53.947Z,0.90
2023-10-15T10:43:20.362Z,0.71
2023-10-15T10:45:46.828Z,0.93
2023-10-15T10:48:13.306Z,0.82
2023-10-15T10:50:39.713Z,0.79
2023-10-15T10:53:06.121Z,0.70
2023-10-15T10:55:32.553Z,0.86
2023-10-15T10:57:58.931Z,0.98
2023-10-15T11:00:25.314Z,0.72
2023-10-15T11:02:51.824Z,0.65
2023-10-15T11:05:18.258Z,0.76
2023-10-15T11:07:44.671Z,0.67
2023-10-15T11:10:11.158Z,0.74
2023-10-15T11:12:37.538Z,0.87
2023-10-15T11:15:03.917Z,0.74
2023-10-15T11:17:30.317Z,0.67
2023-10-15T11:19:56.790Z,0.66
2023-10-15T11:22:23.209Z,0.82
2023-10-15T11:24:49.583Z,0.82
2023-10-15T11:27:15.967Z,0.78
2023-10-15T11:29:42.339Z,0.71
2023-10-15T11:32:08.720Z,0.60
2023-10-15T11:34:35.128Z,0.64
2023-10-15T11:37:01.521Z,0.69
2023-10-15T11:39:27.897Z,0.66
2023-10-15T11:41:54.270Z,0.86
2023-10-15T11:44:20.758Z,0.70
2023-10-15T11:46:47.232Z,0.85
2023-10-15T11:49:13.676Z,0.71
2023-10-15T11:51:40.058Z,0.90
2023-10-15T11:54:06.445Z,0.76
2023-10-15T11:56:32.834Z,0.85
2023-10-15T11:58:59.249Z,0.92
2023-10-15T12:01:25.650Z,0.90
2023-10-15T12:03:52.054Z,0.79
2023-10-15T12:06:18.442Z,0.87
2023-10-15T12:08:44.830Z,0.82
2023-10-15T12:11:11.278Z,0.67
2023-10-15T12:13:37.695Z,0.74
2023-10-15T12:16:04.089Z,0.63
2023-10-15T12:18:30.455Z,0.72
2023-10-15T12:20:56.884Z,0.72
2023-10-15T12:23:23.342Z,0.72
2023-10-15T12:25:49.809Z,0.62
2023-10-15T12:28:16.312Z,1.04
2023-10-15T12:30:42.834Z,1.14
2023-10-15T12:33:09.297Z,0.69
2023-10-15T12:35:35.775Z,0.71
2023-10-15T12:38:02.238Z,0.84
2023-10-15T12:40:28.673Z,0.73
2023-10-15T12:42:55.046Z,0.71
2023-10-15T12:45:21.430Z,1.15
2023-10-15T12:47:47.915Z,0.91
2023-10-15T12:50:14.364Z,0.68
2023-10-15T12:52:40.803Z,0.82
2023-10-15T12:55:07.265Z,0.66
2023-10-15T12:57:33.637Z,0.68
2023-10-15T13:00:00.065Z,0.71
2023-10-15T13:02:26.445Z,0.71
2023-10-15T13:04:52.871Z,0.71
2023-10-15T13:07:19.301Z,0.72
2023-10-15T13:09:45.708Z,0.69
2023-10-15T13:12:12.068Z,0.75
2023-10-15T13:14:38.445Z,0.68
2023-10-15T13:17:04.955Z,0.78
2023-10-15T13:19:31.372Z,0.66
2023-10-15T13:21:57.744Z,0.67
2023-10-15T13:24:24.488Z,1.02
2023-10-15T13:26:51.118Z,1.08
2023-10-15T13:29:17.587Z,0.73
2023-10-15T13:31:44.125Z,0.84
2023-10-15T13:34:10.833Z,0.81
2023-10-15T13:36:37.371Z,0.87
2023-10-15T13:39:05.241Z,1.08
2023-10-15T13:41:33.697Z,0.71
2023-10-15T13:44:00.095Z,0.75
2023-10-15T13:46:26.557Z,0.78
2023-10-15T13:48:53.021Z,0.90
2023-10-15T13:51:19.428Z,0.81
2023-10-15T13:53:45.805Z,0.87
2023-10-15T13:56:12.271Z,0.74
2023-10-15T13:58:38.697Z,0.90
2023-10-15T14:01:05.145Z,0.77
2023-10-15T14:03:31.725Z,0.87
2023-10-15T14:05:58.346Z,0.77
2023-10-15T14:08:24.870Z,0.81
2023-10-15T14:10:51.309Z,0.93
2023-10-15T14:13:20.894Z,0.86
2023-10-15T14:15:47.553Z,1.10
2023-10-15T14:18:13.949Z,0.93
2023-10-15T14:20:40.350Z,1.40
2023-10-15T14:23:06.779Z,1.20
2023-10-15T14:25:33.229Z,1.05
2023-10-15T14:27:59.648Z,0.92
2023-10-15T14:30:26.053Z,0.96
2023-10-15T14:32:52.703Z,1.07
2023-10-15T14:35:19.227Z,0.83
2023-10-15T14:37:45.677Z,1.03
2023-10-15T14:40:12.225Z,0.79
2023-10-15T14:42:38.833Z,0.88
2023-10-15T14:45:05.305Z,0.87
2023-10-15T14:47:31.732Z,0.88
2023-10-15T14:49:58.228Z,0.91
2023-10-15T14:52:24.640Z,0.92
2023-10-15T14:54:51.004Z,0.82
2023-10-15T14:57:17.361Z,0.91
2023-10-15T14:59:43.747Z,0.96
2023-10-15T15:02:10.196Z,1.03
2023-10-15T15:04:36.603Z,1.11
2023-10-15T15:07:02.964Z,1.10
2023-10-15T15:09:29.429Z,1.12
2023-10-15T15:11:55.827Z,1.17
2023-10-15T15:14:22.242Z,1.07
2023-10-15T15:16:48.764Z,1.12
2023-10-15T15:19:15.218Z,1.19
2023-10-15T15:21:41.641Z,0.91
2023-10-15T15:24:08.005Z,1.09
2023-10-15T15:26:34.394Z,0.88
2023-10-15T15:29:00.789Z,0.87
2023-10-15T15:31:27.283Z,0.88
2023-10-15T15:33:53.689Z,0.92
2023-10-15T15:36:20.074Z,0.82
2023-10-15T15:38:46.496Z,0.93
2023-10-15T15:41:12.963Z,0.77
2023-10-15T15:43:39.359Z,0.91
2023-10-15T15:46:05.811Z,0.84
2023-10-15T15:48:32.219Z,0.82
2023-10-15T15:50:58.592Z,0.92
2023-10-15T15:53:25.000Z,0.96
2023-10-15T15:55:51.511Z,0.89
2023-10-15T15:58:17.929Z,1.04
2023-10-15T16:00:44.314Z,0.90
2023-10-15T16:03:10.847Z,0.79
2023-10-15T16:05:37.469Z,0.94
2023-10-15T16:08:04.026Z,0.95
2023-10-15T16:10:30.435Z,0.88
2023-10-15T16:12:56.815Z,0.89
2023-10-15T16:15:23.207Z,0.98
2023-10-15T16:17:50.692Z,0.92
2023-10-15T16:20:17.216Z,0.85
2023-10-15T16:22:43.623Z,0.98
2023-10-15T16:25:10.001Z,1.03
2023-10-15T16:27:36.379Z,0.99
2023-10-15T16:30:02.765Z,1.00
2023-10-15T16:32:29.266Z,1.04
2023-10-15T16:34:55.722Z,1.00
2023-10-15T16:37:22.185Z,0.85
2023-10-15T16:39:48.555Z,1.06
2023-10-15T16:42:14.937Z,0.97
2023-10-15T16:44:41.385Z,0.88
2023-10-15T16:47:07.800Z,0.99
2023-10-15T16:49:34.254Z,0.92
2023-10-15T16:52:00.648Z,0.96
2023-10-15T16:54:27.254Z,0.95
2023-10-15T16:56:53.711Z,1.15
2023-10-15T16:59:20.203Z,0.92
2023-10-15T17:01:46.672Z,0.94
2023-10-15T17:04:13.117Z,0.90
2023-10-15T17:06:39.540Z,0.79
2023-10-15T17:09:05.997Z,0.88
2023-10-15T17:11:32.505Z,0.86
2023-10-15T17:13:58.890Z,0.82
2023-10-15T17:16:25.284Z,0.83
2023-10-15T17:18:51.700Z,1.11
2023-10-15T17:21:18.092Z,0.97
2023-10-15T17:23:44.494Z,1.11
2023-10-15T17:26:10.884Z,0.98
2023-10-15T17:28:37.260Z,1.04
2023-10-15T17:31:03.691Z,0.94
2023-10-15T17:33:30.134Z,1.09
2023-10-15T17:35:56.540Z,1.05
2023-10-15T17:38:22.965Z,1.07
2023-10-15T17:40:49.371Z,1.06
2023-10-15T17:43:15.775Z,1.07
2023-10-15T17:45:42.214Z,1.01
2023-10-15T17:48:08.751Z,1.18
2023-10-15T17:50:35.271Z,0.96
2023-10-15T17:53:01.659Z,1.49
2023-10-15T17:55:28.024Z,1.12
2023-10-15T17:57:54.416Z,1.03
2023-10-15T18:00:20.886Z,1.19
2023-10-15T18:02:47.488Z,1.29
2023-10-15T18:05:13.960Z,1.34
2023-10-15T18:07:40.321Z,1.13
2023-10-15T18:10:06.746Z,1.00
2023-10-15T18:12:33.174Z,1.02
2023-10-15T18:14:59.637Z,1.05
2023-10-15T18:17:26.030Z,1.06
2023-10-15T18:19:52.417Z,0.97
2023-10-15T18:22:18.792Z,1.05
2023-10-15T18:24:45.193Z,1.11
2023-10-15T18:27:11.674Z,1.37
2023-10-15T18:29:38.087Z,1.21
2023-10-15T18:32:04.508Z,1.16
2023-10-15T18:34:30.894Z,1.18
2023-10-15T18:36:57.269Z,1.10
2023-10-15T18:39:23.667Z,1.12
2023-10-15T18:41:50.036Z,1.13
2023-10-15T18:44:16.438Z,1.19
2023-10-15T18:46:42.866Z,1.16
2023-10-15T18:49:09.272Z,1.16
2023-10-15T18:51:38.277Z,1.23
2023-10-15T18:54:05.101Z,1.25
2023-10-15T18:56:32.377Z,1.13
2023-10-15T18:58:58.985Z,1.28
2023-10-15T19:01:25.472Z,1.01
2023-10-15T19:03:52.100Z,1.23
2023-10-15T19:06:18.605Z,1.04
2023-10-15T19:08:45.087Z,1.10
2023-10-15T19:11:11.465Z,1.08
2023-10-15T19:13:37.877Z,1.34
2023-10-15T19:16:04.275Z,1.06
2023-10-15T19:18:30.713Z,1.02
2023-10-15T19:20:57.147Z,1.11
2023-10-15T19:23:23.570Z,1.33
2023-10-15T19:25:49.958Z,1.18
2023-10-15T19:28:16.327Z,1.12
2023-10-15T19:30:42.864Z,1.06
2023-10-15T19:33:09.410Z,1.15
2023-10-15T19:35:35.844Z,1.31
2023-10-15T19:38:02.236Z,1.31
2023-10-15T19:40:28.622Z,1.15
2023-10-15T19:42:55.012Z,1.22
2023-10-15T19:45:21.470Z,1.23
2023-10-15T19:47:47.958Z,1.18
2023-10-15T19:50:14.347Z,1.22
2023-10-15T19:52:40.742Z,1.22
2023-10-15T19:55:07.151Z,1.29
2023-10-15T19:57:33.619Z,1.21
2023-10-15T20:00:00.100Z,1.16
2023-10-15T20:02:26.533Z,1.19
2023-10-15T20:04:53.034Z,1.24
2023-10-15T20:07:19.509Z,1.23
2023-10-15T20:09:45.944Z,1.20
2023-10-15T20:12:12.370Z,1.21
2023-10-15T20:14:38.761Z,1.22
2023-10-15T20:17:05.138Z,1.31
2023-10-15T20:19:31.536Z,1.28
2023-10-15T20:21:57.903Z,1.23
2023-10-15T20:24:24.416Z,1.12
2023-10-15T20:26:50.968Z,1.23
2023-10-15T20:29:17.356Z,1.30
2023-10-15T20:31:43.753Z,1.31
2023-10-15T20:34:10.219Z,1.24
2023-10-15T20:36:36.678Z,1.33
2023-10-15T20:39:03.060Z,1.38
2023-10-15T20:41:29.450Z,1.45
2023-10-15T20:43:55.834Z,1.45
2023-10-15T20:46:22.259Z,1.32
2023-10-15T20:48:48.766Z,1.44
2023-10-15T20:51:15.324Z,1.30
2023-10-15T20:53:41.722Z,1.41
2023-10-15T20:56:08.095Z,1.38
2023-10-15T20:58:34.486Z,1.60
2023-10-15T21:01:00.957Z,1.43
2023-10-15T21:03:27.524Z,1.43
2023-10-15T21:05:54.018Z,1.57
2023-10-15T21:08:20.406Z,1.49
2023-10-15T21:10:47.362Z,1.47
2023-10-15T21:13:13.746Z,1.39
2023-10-15T21:15:40.150Z,1.54
2023-10-15T21:18:06.738Z,1.58
2023-10-15T21:20:33.197Z,1.56
2023-10-15T21:22:59.580Z,1.36
2023-10-15T21:25:25.953Z,1.56
2023-10-15T21:27:52.353Z,1.47
2023-10-15T21:30:18.768Z,1.60
2023-10-15T21:32:45.222Z,1.62
2023-10-15T21:35:11.886Z,1.57
2023-10-15T21:37:38.335Z,1.65
2023-10-15T21:40:04.718Z,1.57
2023-10-15T21:42:31.233Z,1.64
2023-10-15T21:44:57.633Z,1.62
2023-10-15T21:47:24.055Z,1.62
2023-10-15T21:49:50.449Z,1.56
2023-10-15T21:52:16.850Z,1.80
2023-10-15T21:54:43.304Z,1.56
2023-10-15T21:57:09.813Z,1.55
2023-10-15T21:59:36.301Z,1.49
2023-10-15T22:02:02.742Z,1.51
2023-10-15T22:04:29.192Z,1.73
2023-10-15T22:06:55.564Z,1.54
2023-10-15T22:09:21.948Z,1.79
2023-10-15T22:11:48.371Z,1.74
2023-10-15T22:14:14.736Z,1.60
2023-10-15T22:16:41.140Z,1.53
2023-10-15T22:19:07.535Z,1.45
2023-10-15T22:21:34.014Z,1.50
2023-10-15T22:24:00.444Z,1.62
2023-10-15T22:26:26.890Z,1.69
2023-10-15T22:28:53.258Z,1.57
2023-10-15T22:31:19.649Z,1.69
2023-10-15T22:33:46.138Z,1.61
2023-10-15T22:36:12.546Z,1.71
2023-10-15T22:38:38.951Z,1.70
2023-10-15T22:41:05.317Z,1.68
2023-10-15T22:43:31.694Z,1.66
2023-10-15T22:45:58.066Z,1.68
2023-10-15T22:48:24.519Z,1.67
2023-10-15T22:50:50.894Z,1.81
2023-10-15T22:53:17.265Z,1.69
2023-10-15T22:55:43.632Z,1.67
2023-10-15T22:58:10.022Z,1.74
2023-10-15T23:00:36.415Z,1.63
2023-10-15T23:03:02.855Z,1.64
2023-10-15T23:05:29.248Z,1.70
2023-10-15T23:07:55.639Z,1.78
2023-10-15T23:10:22.017Z,1.52
2023-10-15T23:12:48.509Z,1.70
2023-10-15T23:15:14.965Z,1.58
2023-10-15T23:17:41.444Z,1.74
2023-10-15T23:20:07.910Z,1.64
2023-10-15T23:22:34.278Z,1.50
2023-10-15T23:25:00.643Z,1.89
2023-10-15T23:27:27.062Z,1.60
2023-10-15T23:29:53.453Z,1.79
2023-10-15T23:32:19.843Z,1.78
2023-10-15T23:34:46.241Z,1.75
2023-10-15T23:37:12.714Z,1.61
2023-10-15T23:39:39.217Z,1.91
2023-10-15T23:42:05.638Z,1.88
2023-10-15T23:44:32.014Z,1.89
2023-10-15T23:46:58.391Z,1.65
2023-10-15T23:49:24.772Z,1.99
2023-10-15T23:51:51.189Z,1.79
2023-10-15T23:54:17.655Z,1.96
2023-10-15T23:56:44.068Z,2.05
2023-10-15T23:59:10.497Z,2.00
